Como, South Dakota
Current Conditions -  °F | °C
As of 2:55 PM on Friday 24 Oct 2014 (Local Time) from KHON Reporting Station
Clear Clear  
Wind Chill: 79°   Ceiling: Unl
Heat Index: 79°   Visibility: 10mi
Dew Point: 33°   Wind: 8mph
Humidity: 19%   Direction: 290°WNW
Pressure: 29.87"   Gusts: NA
Location:  44.4695°N, 98.9943°W
Report Text: KHON 241955Z AUTO 29007KT 10SM CLR 26/01 A2987 RMK AO2 SLP112 T02610006
Loading
Personal Weather Stations






























Interactive Weather Map
Tropical Storm Tracking
New forecast layout! Learn more

10-Day Weather Forecast

Advertisements
Track Severe Weather on mobile